Tempos de volta de F4 DRIVERS F4 DRIVERS - BLACK & F4 DRIVERS / PROVA 4 - 21:00
KARTODROMO INTERNACIONAL GRANJA VIANA a funcionar KGV RACE TRACKS CIRCUITO - 119
Tempos de volta de F4 DRIVERS - F4 DRIVERS - BLACK & F4 DRIVERS / PROVA 4 - 21:00


Hora do dia Volta Volta do Líder Volta Tm Velocidade
014 - (B) ANTÔNIO LOPES - F4 DRIVERS
21:13:08.321 1 1 48.533 60,825
21:13:52.634 2 2 44.313 66,617
21:14:36.840 3 3 44.206 66,778
21:15:20.695 4 4 43.855 67,313
21:16:04.508 5 5 43.813 67,377
21:16:48.230 6 6 43.722 67,517
21:17:32.000 7 7 43.770 67,443
21:18:15.623 8 8 43.623 67,671
21:18:59.191 9 9 43.568 67,756
21:19:42.701 10 10 43.510 67,846
21:20:26.579 11 11 43.878 67,277
21:21:10.219 12 12 43.640 67,644
21:21:54.415 13 13 44.196 66,793
21:22:38.267 14 14 43.852 67,317
21:23:22.148 15 15 43.881 67,273
21:24:05.900 16 16 43.752 67,471
21:24:49.419 17 17 43.519 67,832
21:25:32.997 18 18 43.578 67,741
21:26:16.847 19 19 43.850 67,320
21:27:00.467 20 20 43.620 67,675
21:27:43.999 21 21 43.532 67,812
21:28:27.733 22 22 43.734 67,499
21:29:11.395 23 23 43.662 67,610
21:29:55.272 24 24 43.877 67,279
044 - (F) MIGUEL VARCA - F4 DRIVERS
21:13:09.084 1 1 46.904 62,937
21:13:53.827 2 2 44.743 65,977
21:14:38.268 3 3 44.441 66,425
21:15:22.014 4 4 43.746 67,480
21:16:05.659 5 5 43.645 67,637
21:16:49.535 6 6 43.876 67,281
21:17:33.291 7 7 43.756 67,465
21:18:16.963 8 8 43.672 67,595
21:19:00.496 9 9 43.533 67,811
21:19:44.251 10 10 43.755 67,467
21:20:27.835 11 11 43.584 67,731
21:21:11.435 12 12 43.600 67,706
21:21:54.926 13 13 43.491 67,876
21:22:38.420 14 14 43.494 67,871
21:23:22.266 15 15 43.846 67,327
21:24:06.130 16 16 43.864 67,299
21:24:49.712 17 17 43.582 67,734
21:25:33.334 18 18 43.622 67,672
21:26:17.097 19 19 43.763 67,454
21:27:00.680 20 20 43.583 67,733
21:27:44.390 21 21 43.710 67,536
21:28:28.321 22 22 43.931 67,196
21:29:11.930 23 23 43.609 67,692
21:29:55.742 24 24 43.812 67,379
242 - (B) ALEXANDRE ALBINO - F4 DRIVERS
21:13:08.849 1 1 47.715 61,867
21:13:53.267 2 2 44.418 66,460
21:14:37.026 3 3 43.759 67,460
21:15:21.127 4 4 44.101 66,937
21:16:04.723 5 5 43.596 67,713
21:16:48.507 6 6 43.784 67,422
21:17:32.238 7 7 43.731 67,504
21:18:15.901 8 8 43.663 67,609
21:18:59.480 9 9 43.579 67,739
21:19:42.991 10 10 43.511 67,845
21:20:26.762 11 11 43.771 67,442
21:21:10.349 12 12 43.587 67,727
21:21:54.215 13 13 43.866 67,296
21:22:37.977 14 14 43.762 67,456
21:23:21.992 15 15 44.015 67,068
21:24:05.598 16 16 43.606 67,697
21:24:49.146 17 17 43.548 67,787
21:25:32.899 18 18 43.753 67,470
21:26:16.561 19 19 43.662 67,610
21:27:00.192 20 20 43.631 67,658
21:27:43.928 21 21 43.736 67,496
21:28:28.100 22 22 44.172 66,830
21:29:11.635 23 23 43.535 67,808
21:29:55.842 24 24 44.207 66,777
034 - (B) MURILO BRUNO - F4 DRIVERS
21:13:10.130 1 1 47.343 62,353
21:13:54.317 2 2 44.187 66,807
21:14:38.377 3 3 44.060 67,000
21:15:22.308 4 4 43.931 67,196
21:16:05.986 5 5 43.678 67,586
21:16:50.064 6 6 44.078 66,972
21:17:33.771 7 7 43.707 67,541
21:18:17.633 8 8 43.862 67,302
21:19:01.292 9 9 43.659 67,615
21:19:44.862 10 10 43.570 67,753
21:20:28.567 11 11 43.705 67,544
21:21:12.180 12 12 43.613 67,686
21:21:55.662 13 13 43.482 67,890
21:22:39.353 14 14 43.691 67,565
21:23:23.568 15 15 44.215 66,765
21:24:07.370 16 16 43.802 67,394
21:24:51.188 17 17 43.818 67,370
21:25:34.841 18 18 43.653 67,624
21:26:18.800 19 19 43.959 67,153
21:27:03.205 20 20 44.405 66,479
21:27:47.234 21 21 44.029 67,047
21:28:30.889 22 22 43.655 67,621
21:29:15.644 23 23 44.755 65,959
21:30:00.705 24 24 45.061 65,511
015 - (B) MARCOS BARONE - F4 DRIVERS
21:13:11.155 1 1 47.793 61,766
21:13:55.987 2 2 44.832 65,846
21:14:40.382 3 3 44.395 66,494
21:15:24.479 4 4 44.097 66,943
21:16:08.459 5 5 43.980 67,121
21:16:52.230 6 6 43.771 67,442
21:17:36.173 7 7 43.943 67,178
21:18:20.170 8 8 43.997 67,095
21:19:03.863 9 9 43.693 67,562
21:19:47.610 10 10 43.747 67,479
21:20:31.281 11 11 43.671 67,596
21:21:14.972 12 12 43.691 67,565
21:21:59.009 13 13 44.037 67,035
21:22:43.135 14 14 44.126 66,899
21:23:27.056 15 15 43.921 67,212
21:24:10.899 16 16 43.843 67,331
21:24:54.698 17 17 43.799 67,399
21:25:38.438 18 18 43.740 67,490
21:26:22.956 19 19 44.518 66,310
21:27:06.810 20 20 43.854 67,314
21:27:50.542 21 21 43.732 67,502
21:28:34.867 22 22 44.325 66,599
21:29:18.731 23 23 43.864 67,299
21:30:02.717 24 24 43.986 67,112
012 - (F) PAULO ALEX - F4 DRIVERS
21:13:11.656 1 1 48.378 61,019
21:13:56.682 2 2 45.026 65,562
21:14:40.699 3 3 44.017 67,065
21:15:25.033 4 4 44.334 66,585
21:16:08.967 5 5 43.934 67,192
21:16:52.603 6 6 43.636 67,651
21:17:36.400 7 7 43.797 67,402
21:18:20.417 8 8 44.017 67,065
21:19:04.340 9 9 43.923 67,209
21:19:47.993 10 10 43.653 67,624
21:20:31.570 11 11 43.577 67,742
21:21:15.112 12 12 43.542 67,797
21:21:59.545 13 13 44.433 66,437
21:22:43.320 14 14 43.775 67,436
21:23:27.461 15 15 44.141 66,877
21:24:11.239 16 16 43.778 67,431
21:24:54.989 17 17 43.750 67,474
21:25:38.795 18 18 43.806 67,388
21:26:22.766 19 19 43.971 67,135
21:27:07.173 20 20 44.407 66,476
21:27:51.014 21 21 43.841 67,334
21:28:35.055 22 22 44.041 67,028
21:29:19.077 23 23 44.022 67,057
21:30:03.011 24 24 43.934 67,192
031 - (F) AUGUSTO CHAGAS - F4 DRIVERS
21:13:12.732 1 1 48.714 60,599
21:13:57.327 2 2 44.595 66,196
21:14:41.791 3 3 44.464 66,391
21:15:25.982 4 4 44.191 66,801
21:16:09.950 5 5 43.968 67,140
21:16:54.024 6 6 44.074 66,978
21:17:38.226 7 7 44.202 66,784
21:18:22.292 8 8 44.066 66,990
21:19:06.147 9 9 43.855 67,313
21:19:50.227 10 10 44.080 66,969
21:20:34.498 11 11 44.271 66,680
21:21:18.803 12 12 44.305 66,629
21:22:03.157 13 13 44.354 66,555
21:22:47.433 14 14 44.276 66,673
21:23:31.998 15 15 44.565 66,240
21:24:16.286 16 16 44.288 66,655
21:25:00.405 17 17 44.119 66,910
21:25:44.641 18 18 44.236 66,733
21:26:28.947 19 19 44.306 66,628
21:27:12.917 20 20 43.970 67,137
21:27:56.956 21 21 44.039 67,031
21:28:41.043 22 22 44.087 66,959
21:29:24.944 23 23 43.901 67,242
21:30:09.226 24 24 44.282 66,664
035 - (F) ALEXANDRE CURY - F4 DRIVERS
21:13:08.720 1 1 47.714 61,869
21:13:53.770 2 2 45.050 65,527
21:14:38.034 3 3 44.264 66,691
21:15:21.872 4 4 43.838 67,339
21:16:05.592 5 5 43.720 67,521
21:16:50.342 6 6 44.750 65,966
21:17:33.953 7 7 43.611 67,689
21:18:18.024 8 8 44.071 66,983
21:19:01.541 9 9 43.517 67,836
21:19:45.008 10 10 43.467 67,914
21:20:28.722 11 11 43.714 67,530
21:21:13.030 12 12 44.308 66,625
21:21:56.909 13 13 43.879 67,276
21:22:40.671 14 14 43.762 67,456
21:23:24.340 15 15 43.669 67,599
21:24:08.142 16 16 43.802 67,394
21:24:51.733 17 17 43.591 67,720
21:25:35.225 18 18 43.492 67,875
21:26:19.080 19 19 43.855 67,313
21:27:03.350 20 20 44.270 66,682
21:27:47.590 21 21 44.240 66,727
21:28:31.225 22 22 43.635 67,652
21:29:15.644 23 23 44.419 66,458
21:29:59.451 24 24 43.807 67,386
099 - (B) ANDERSON GARDENA - F4 DRIVERS
21:13:11.420 1 1 49.669 59,433
21:13:56.932 2 2 45.512 64,862
21:14:41.729 3 3 44.797 65,897
21:15:26.366 4 4 44.637 66,133
21:16:10.713 5 5 44.347 66,566
21:16:54.720 6 6 44.007 67,080
21:17:38.919 7 7 44.199 66,789
21:18:23.275 8 8 44.356 66,552
21:19:07.772 9 9 44.497 66,342
21:19:52.110 10 10 44.338 66,579
21:20:36.237 11 11 44.127 66,898
21:21:20.521 12 12 44.284 66,661
21:22:04.928 13 13 44.407 66,476
21:22:49.344 14 14 44.416 66,463
21:23:33.690 15 15 44.346 66,567
21:24:17.680 16 16 43.990 67,106
21:25:01.949 17 17 44.269 66,683
21:25:46.085 18 18 44.136 66,884
21:26:30.431 19 19 44.346 66,567
21:27:14.676 20 20 44.245 66,719
21:27:58.968 21 21 44.292 66,649
21:28:43.152 22 22 44.184 66,812
21:29:27.357 23 23 44.205 66,780
21:30:11.770 24 24 44.413 66,467
111 - (B) EMERSON VIVIANI - F4 DRIVERS
21:13:14.167 1 1 49.123 60,094
21:13:59.214 2 2 45.047 65,532
21:14:43.960 3 3 44.746 65,972
21:15:28.617 4 4 44.657 66,104
21:16:12.938 5 5 44.321 66,605
21:16:57.379 6 6 44.441 66,425
21:17:41.778 7 7 44.399 66,488
21:18:25.984 8 8 44.206 66,778
21:19:10.171 9 9 44.187 66,807
21:19:54.254 10 10 44.083 66,965
21:20:38.497 11 11 44.243 66,722
21:21:22.816 12 12 44.319 66,608
21:22:06.973 13 13 44.157 66,852
21:22:51.228 14 14 44.255 66,704
21:23:35.229 15 15 44.001 67,089
21:24:19.233 16 16 44.004 67,085
21:25:02.905 17 17 43.672 67,595
21:25:46.832 18 18 43.927 67,202
21:26:31.095 19 19 44.263 66,692
21:27:15.609 20 20 44.514 66,316
21:28:00.065 21 21 44.456 66,403
21:28:43.830 22 22 43.765 67,451
21:29:27.754 23 23 43.924 67,207
21:30:11.992 24 24 44.238 66,730
046 - (F) ANDERSON SILVA - F4 DRIVERS
21:13:12.222 1 1 48.225 61,213
21:13:57.843 2 2 45.621 64,707
21:14:42.329 3 3 44.486 66,358
21:15:26.766 4 4 44.437 66,431
21:16:11.096 5 5 44.330 66,591
21:16:55.228 6 6 44.132 66,890
21:17:39.736 7 7 44.508 66,325
21:18:23.956 8 8 44.220 66,757
21:19:08.207 9 9 44.251 66,710
21:19:52.271 10 10 44.064 66,993
21:20:36.694 11 11 44.423 66,452
21:21:20.900 12 12 44.206 66,778
21:22:05.161 13 13 44.261 66,695
21:22:49.464 14 14 44.303 66,632
21:23:33.874 15 15 44.410 66,472
21:24:18.075 16 16 44.201 66,786
21:25:02.249 17 17 44.174 66,827
21:25:46.541 18 18 44.292 66,649
21:26:30.955 19 19 44.414 66,466
21:27:15.510 20 20 44.555 66,255
21:28:00.686 21 21 45.176 65,344
21:28:44.770 22 22 44.084 66,963
21:29:29.206 23 23 44.436 66,433
21:30:14.423 24 24 45.217 65,285
000 - (F) DANIEL LUTFI - F4 DRIVERS
21:13:12.932 1 1 48.467 60,907
21:13:58.474 2 2 45.542 64,819
21:14:43.456 3 3 44.982 65,626
21:15:27.934 4 4 44.478 66,370
21:16:12.199 5 5 44.265 66,689
21:16:56.492 6 6 44.293 66,647
21:17:40.741 7 7 44.249 66,713
21:18:25.067 8 8 44.326 66,597
21:19:09.487 9 9 44.420 66,457
21:19:53.704 10 10 44.217 66,762
21:20:38.761 11 11 45.057 65,517
21:21:23.206 12 12 44.445 66,419
21:22:07.832 13 13 44.626 66,150
21:22:52.246 14 14 44.414 66,466
21:23:37.036 15 15 44.790 65,908
21:24:21.481 16 16 44.445 66,419
21:25:05.815 17 17 44.334 66,585
21:25:50.180 18 18 44.365 66,539
21:26:34.769 19 19 44.589 66,205
21:27:19.260 20 20 44.491 66,350
21:28:04.205 21 21 44.945 65,680
21:28:48.937 22 22 44.732 65,993
21:29:33.571 23 23 44.634 66,138
21:30:18.135 24 24 44.564 66,242
013 - (F) EDUARDO RECHE - F4 DRIVERS
21:13:13.310 1 1 48.404 60,987
21:13:58.710 2 2 45.400 65,022
21:14:43.687 3 3 44.977 65,634
21:15:28.229 4 4 44.542 66,275
21:16:12.615 5 5 44.386 66,507
21:16:57.201 6 6 44.586 66,209
21:17:42.605 7 7 45.404 65,016
21:18:26.888 8 8 44.283 66,662
21:19:10.928 9 9 44.040 67,030
21:19:55.444 10 10 44.516 66,313
21:20:39.702 11 11 44.258 66,700
21:21:23.811 12 12 44.109 66,925
21:22:08.849 13 13 45.038 65,545
21:22:54.607 14 14 45.758 64,513
21:23:39.219 15 15 44.612 66,171
21:24:23.821 16 16 44.602 66,185
21:25:08.252 17 17 44.431 66,440
21:25:52.491 18 18 44.239 66,728
21:26:37.666 19 19 45.175 65,346
21:27:22.060 20 20 44.394 66,495
21:28:06.249 21 21 44.189 66,804
21:28:50.563 22 22 44.314 66,616
21:29:35.186 23 23 44.623 66,154
21:30:19.370 24 24 44.184 66,812
011 - (F) ANDRE SANTOS - F4 DRIVERS
21:13:14.772 1 1 48.587 60,757
21:13:59.922 2 2 45.150 65,382
21:14:44.850 3 3 44.928 65,705
21:15:29.674 4 4 44.824 65,858
21:16:14.684 5 5 45.010 65,585
21:16:59.633 6 6 44.949 65,674
21:17:45.595 7 7 45.962 64,227
21:18:30.974 8 8 45.379 65,052
21:19:15.733 9 9 44.759 65,953
21:20:00.953 10 10 45.220 65,281
21:20:45.465 11 11 44.512 66,319
21:21:30.037 12 12 44.572 66,230
21:22:14.794 13 13 44.757 65,956
21:22:59.344 14 14 44.550 66,263
21:23:43.678 15 15 44.334 66,585
21:24:27.823 16 16 44.145 66,871
21:25:12.144 17 17 44.321 66,605
21:25:56.263 18 18 44.119 66,910
21:26:40.431 19 19 44.168 66,836
21:27:24.487 20 20 44.056 67,006
21:28:08.534 21 21 44.047 67,019
21:28:52.686 22 22 44.152 66,860
21:29:36.577 23 23 43.891 67,258
21:30:20.251 24 24 43.674 67,592
068 - (F) MANOEL PIMENTEL - F4 DRIVERS
21:13:15.165 1 1 48.657 60,670
21:14:00.726 2 2 45.561 64,792
21:14:45.537 3 3 44.811 65,877
21:15:30.119 4 4 44.582 66,215
21:16:15.149 5 5 45.030 65,556
21:16:59.845 6 6 44.696 66,046
21:17:45.636 7 7 45.791 64,467
21:18:30.753 8 8 45.117 65,430
21:19:15.620 9 9 44.867 65,794
21:20:00.867 10 10 45.247 65,242
21:20:45.656 11 11 44.789 65,909
21:21:30.325 12 12 44.669 66,086
21:22:15.889 13 13 45.564 64,788
21:23:01.005 14 14 45.116 65,431
21:23:45.569 15 15 44.564 66,242
21:24:30.097 16 16 44.528 66,295
21:25:14.724 17 17 44.627 66,148
21:25:59.103 18 18 44.379 66,518
21:26:43.657 19 19 44.554 66,257
21:27:28.249 20 20 44.592 66,200
21:28:13.249 21 21 45.000 65,600
21:28:59.076 22 22 45.827 64,416
21:29:44.701 23 23 45.625 64,701
21:30:29.770 24 24 45.069 65,500
088 - (F) MARCELO LIMA - F4 DRIVERS
21:13:15.603 1 1 48.388 61,007
21:14:01.596 2 2 45.993 64,184
21:14:46.913 3 3 45.317 65,141
21:15:32.285 4 4 45.372 65,062
21:16:17.401 5 5 45.116 65,431
21:17:02.189 6 6 44.788 65,911
21:17:47.055 7 7 44.866 65,796
21:18:32.098 8 8 45.043 65,537
21:19:16.586 9 9 44.488 66,355
21:20:01.486 10 10 44.900 65,746
21:20:45.942 11 11 44.456 66,403
21:21:30.414 12 12 44.472 66,379
21:22:15.497 13 13 45.083 65,479
21:23:00.247 14 14 44.750 65,966
21:23:45.115 15 15 44.868 65,793
21:24:29.109 16 16 43.994 67,100
21:25:14.161 17 17 45.052 65,524
21:25:58.847 18 18 44.686 66,061
21:26:43.528 19 19 44.681 66,068
21:27:28.376 20 20 44.848 65,822
21:28:13.437 21 21 45.061 65,511
21:28:58.910 22 22 45.473 64,918
21:29:44.639 23 23 45.729 64,554
21:30:31.544 24 24 46.905 62,936
022 - (F) DANILO PACINI - F4 DRIVERS
21:13:15.110 1 1 49.271 59,914
21:14:01.154 2 2 46.044 64,113
21:14:46.629 3 3 45.475 64,915
21:15:31.782 4 4 45.153 65,378
21:16:16.779 5 5 44.997 65,604
21:17:01.418 6 6 44.639 66,131
21:17:46.430 7 7 45.012 65,583
21:18:31.422 8 8 44.992 65,612
21:19:16.305 9 9 44.883 65,771
21:20:01.818 10 10 45.513 64,861
21:20:46.662 11 11 44.844 65,828
21:21:31.437 12 12 44.775 65,930
21:22:16.740 13 13 45.303 65,161
21:23:01.949 14 14 45.209 65,297
21:23:46.992 15 15 45.043 65,537
21:24:32.041 16 16 45.049 65,529
21:25:17.376 17 17 45.335 65,115
21:26:02.414 18 18 45.038 65,545
21:26:47.713 19 19 45.299 65,167
21:27:32.878 20 20 45.165 65,360
21:28:17.763 21 21 44.885 65,768
21:29:02.600 22 22 44.837 65,838
21:29:47.461 23 23 44.861 65,803
21:30:32.265 24 24 44.804 65,887
005 - (B) ADRIANO ALVES - F4 DRIVERS
21:13:09.951 1 1 47.138 62,625
21:13:54.205 2 2 44.254 66,706
21:14:38.836 3 3 44.631 66,142
21:15:23.195 4 4 44.359 66,548
21:16:07.423 5 5 44.228 66,745
21:16:51.207 6 6 43.784 67,422
21:17:34.853 7 7 43.646 67,635
21:18:18.636 8 8 43.783 67,423
21:19:02.203 9 9 43.567 67,758
21:19:45.831 10 10 43.628 67,663
21:20:29.305 11 11 43.474 67,903
21:21:13.179 12 12 43.874 67,284
032 - (F) LUIZ RUBELLO - F4 DRIVERS
21:13:14.345 1 1 49.082 60,144
21:13:59.736 2 2 45.391 65,035
21:14:44.777 3 3 45.041 65,540
21:15:29.596 4 4 44.819 65,865
21:16:14.576 5 5 44.980 65,629
21:16:59.522 6 6 44.946 65,679
21:17:46.527 7 7 47.005 62,802
21:18:32.952 8 8 46.425 63,586
21:19:17.977 9 9 45.025 65,564
21:20:02.555 10 10 44.578 66,221
21:20:46.949 11 11 44.394 66,495
21:21:31.792 12 12 44.843 65,830
Gerada em 09/09/2020 19:10